Time;durP1;ratioP1;P1;durP2;ratioP2;P2;SDS_P1;SDS_P2;PMS_P1;PMS_P2;Temp;Humidity;BMP_temperature;BMP_pressure;BME280_temperature;BME280_humidity;BME280_pressure;Samples;Min_cycle;Max_cycle;Signal;HPM_P1;HPM_P2
2022/10/11 00:01:21;;;;;;;3.65;1.20;;;22.60;44.70;;;;;;4933496;29;20590;-43
2022/10/11 00:03:51;;;;;;;4.05;1.40;;;22.70;44.70;;;;;;4933423;29;20219;-37
2022/10/11 00:06:22;;;;;;;3.60;1.30;;;22.70;44.70;;;;;;4932678;29;20227;-40
2022/10/11 00:08:53;;;;;;;3.30;1.30;;;22.70;44.70;;;;;;4933527;29;20196;-42
2022/10/11 00:11:23;;;;;;;3.95;1.23;;;22.70;44.70;;;;;;4933666;29;20195;-45
2022/10/11 00:13:54;;;;;;;4.32;1.00;;;22.70;44.60;;;;;;4932901;29;20215;-43
2022/10/11 00:16:27;;;;;;;2.28;0.93;;;22.70;44.60;;;;;;4933732;29;20580;-37
2022/10/11 00:18:57;;;;;;;2.63;1.00;;;22.80;44.60;;;;;;4932685;29;20200;-38
2022/10/11 00:21:29;;;;;;;2.55;1.08;;;22.80;44.60;;;;;;4924741;29;20200;-37
2022/10/11 00:24:03;;;;;;;2.85;1.15;;;22.80;44.50;;;;;;4932370;29;20227;-38
2022/10/11 00:26:33;;;;;;;4.03;1.25;;;22.90;44.40;;;;;;4933360;29;20235;-40
2022/10/11 00:29:04;;;;;;;4.22;1.20;;;22.90;44.30;;;;;;4932594;29;20203;-38
2022/10/11 00:31:37;;;;;;;4.45;1.20;;;22.90;44.30;;;;;;4933077;29;20805;-38
2022/10/11 00:34:09;;;;;;;4.32;1.20;;;22.90;44.50;;;;;;4932863;29;20238;-41
2022/10/11 00:36:39;;;;;;;4.90;1.10;;;22.90;44.20;;;;;;4932904;29;20207;-38
2022/10/11 00:39:10;;;;;;;3.35;1.20;;;22.90;44.10;;;;;;4935821;29;20210;-38
2022/10/11 00:41:41;;;;;;;2.78;1.10;;;23.00;44.10;;;;;;4936659;29;20203;-38
2022/10/11 00:44:14;;;;;;;2.63;1.00;;;23.00;44.10;;;;;;4937066;29;20230;-37
2022/10/11 00:46:51;;;;;;;3.88;0.95;;;23.00;44.00;;;;;;4936198;29;20242;-44
2022/10/11 00:49:29;;;;;;;1.65;0.80;;;23.00;43.90;;;;;;4937506;29;20203;-38
2022/10/11 00:52:03;;;;;;;2.42;1.20;;;23.00;43.80;;;;;;4936093;29;20211;-38
2022/10/11 00:54:35;;;;;;;3.00;1.10;;;23.10;43.90;;;;;;4916875;29;20220;-41
2022/10/11 00:57:09;;;;;;;2.40;1.10;;;23.10;43.80;;;;;;4935727;29;20234;-38
2022/10/11 00:59:42;;;;;;;3.00;1.05;;;23.10;43.80;;;;;;4924688;29;20204;-40
2022/10/11 01:02:16;;;;;;;3.95;1.20;;;23.10;43.80;;;;;;4916827;29;20196;-42
2022/10/11 01:04:47;;;;;;;2.08;0.82;;;23.10;43.80;;;;;;4917967;29;20224;-38
2022/10/11 01:07:20;;;;;;;2.15;1.10;;;23.20;43.90;;;;;;4917762;29;20705;-38
2022/10/11 01:09:51;;;;;;;4.18;1.33;;;23.20;43.90;;;;;;4917623;29;20653;-39
2022/10/11 01:12:24;;;;;;;3.30;0.90;;;23.20;43.90;;;;;;4917929;29;20208;-39
2022/10/11 01:15:16;;;;;;;3.75;0.90;;;23.20;43.90;;;;;;4917866;29;20220;-38
2022/10/11 01:17:57;;;;;;;3.10;1.00;;;23.20;43.90;;;;;;4917371;29;20200;-37
2022/10/11 01:20:40;;;;;;;4.03;1.27;;;23.30;43.90;;;;;;4917472;29;20204;-38
2022/10/11 01:23:51;;;;;;;5.05;0.90;;;23.30;43.80;;;;;;4929032;29;20192;-38
2022/10/11 01:27:01;;;;;;;2.92;1.15;;;23.30;43.80;;;;;;4931366;29;20241;-39
2022/10/11 01:29:43;;;;;;;5.25;1.05;;;23.30;43.80;;;;;;4936336;29;20199;-38
2022/10/11 01:32:20;;;;;;;2.85;1.40;;;23.30;43.80;;;;;;4935824;29;20216;-38
2022/10/11 01:34:57;;;;;;;3.70;1.20;;;23.40;43.70;;;;;;4936600;29;20215;-40
2022/10/11 01:37:34;;;;;;;3.40;1.15;;;23.40;43.70;;;;;;4936098;29;20611;-38
2022/10/11 01:40:08;;;;;;;4.32;1.20;;;23.40;43.60;;;;;;4936024;29;20210;-42
2022/10/11 01:42:40;;;;;;;4.45;1.38;;;23.40;43.70;;;;;;4935943;29;20672;-45
2022/10/11 01:45:15;;;;;;;3.42;1.33;;;23.40;43.80;;;;;;4936230;29;20231;-39
2022/10/11 01:47:48;;;;;;;6.00;1.17;;;23.40;43.60;;;;;;4935006;29;20206;-39
2022/10/11 01:50:40;;;;;;;3.38;1.40;;;23.40;43.50;;;;;;4918290;29;20196;-39
2022/10/11 01:53:41;;;;;;;4.88;1.10;;;23.40;43.60;;;;;;4916121;29;20204;-37
2022/10/11 01:56:27;;;;;;;4.57;1.30;;;23.50;43.50;;;;;;4922862;29;20702;-37
2022/10/11 01:59:17;;;;;;;4.45;1.48;;;23.50;43.40;;;;;;4935601;29;20207;-41
2022/10/11 02:01:56;;;;;;;3.78;1.17;;;23.50;43.50;;;;;;4935016;29;20196;-39
2022/10/11 02:04:36;;;;;;;4.07;1.50;;;23.50;43.40;;;;;;4935050;29;20617;-38
2022/10/11 02:07:12;;;;;;;4.00;1.40;;;23.40;43.30;;;;;;4934590;29;20584;-37
2022/10/11 02:09:47;;;;;;;3.30;1.15;;;23.50;43.40;;;;;;4935504;29;20207;-38
2022/10/11 02:12:25;;;;;;;2.88;1.20;;;23.50;43.30;;;;;;4935552;29;20233;-43
2022/10/11 02:14:58;;;;;;;3.28;1.20;;;23.50;43.30;;;;;;4935937;29;20215;-46
2022/10/11 02:17:33;;;;;;;4.07;1.35;;;23.50;43.40;;;;;;4935584;29;20199;-38
2022/10/11 02:20:11;;;;;;;3.58;1.30;;;23.50;43.40;;;;;;4935236;29;20210;-37
2022/10/11 02:22:46;;;;;;;3.42;1.30;;;23.50;43.40;;;;;;4935683;29;20291;-37
2022/10/11 02:25:22;;;;;;;3.20;1.00;;;23.50;43.50;;;;;;4935166;29;20219;-42
2022/10/11 02:27:56;;;;;;;4.60;1.40;;;23.50;43.40;;;;;;4935383;29;20320;-49
2022/10/11 02:30:27;;;;;;;4.38;1.40;;;23.50;43.30;;;;;;4934781;29;20206;-40
2022/10/11 02:33:00;;;;;;;3.80;1.30;;;23.50;43.40;;;;;;4934733;29;20238;-37
2022/10/11 02:35:38;;;;;;;6.05;1.60;;;23.50;43.30;;;;;;4935150;29;20216;-45
2022/10/11 02:38:17;;;;;;;4.07;1.45;;;23.50;43.20;;;;;;4934928;29;20210;-43
2022/10/11 02:40:52;;;;;;;6.05;1.50;;;23.50;43.30;;;;;;4935040;29;20648;-50
2022/10/11 02:43:29;;;;;;;4.80;1.35;;;23.50;43.20;;;;;;4934249;29;20207;-46
2022/10/11 02:46:02;;;;;;;5.20;1.40;;;23.50;43.20;;;;;;4934811;29;20239;-40
2022/10/11 02:48:35;;;;;;;4.43;1.45;;;23.50;43.20;;;;;;4934581;29;20206;-40
2022/10/11 02:51:12;;;;;;;5.43;1.17;;;23.50;43.20;;;;;;4934723;29;20199;-43
2022/10/11 02:53:43;;;;;;;3.92;1.40;;;23.50;43.40;;;;;;4934368;29;20238;-46
2022/10/11 02:56:14;;;;;;;4.53;1.75;;;23.50;43.30;;;;;;4934310;29;20279;-37
2022/10/11 02:58:45;;;;;;;3.50;1.10;;;23.60;43.30;;;;;;4934920;29;20212;-37
2022/10/11 03:01:16;;;;;;;3.85;1.50;;;23.60;43.10;;;;;;4934387;29;20591;-38
2022/10/11 03:03:47;;;;;;;5.03;1.83;;;23.60;43.20;;;;;;4934354;29;20249;-38
2022/10/11 03:06:19;;;;;;;5.43;1.50;;;23.60;43.10;;;;;;4934592;29;20227;-44
2022/10/11 03:08:50;;;;;;;4.85;1.70;;;23.60;42.90;;;;;;4926826;29;20211;-37
2022/10/11 03:11:21;;;;;;;5.35;1.70;;;23.60;42.90;;;;;;4914608;29;20613;-38
2022/10/11 03:13:52;;;;;;;7.22;1.80;;;23.60;42.90;;;;;;4914963;29;20697;-37
2022/10/11 03:16:23;;;;;;;3.90;1.30;;;23.60;42.90;;;;;;4915047;29;20210;-41
2022/10/11 03:18:54;;;;;;;7.82;1.95;;;23.60;42.80;;;;;;4918385;29;20204;-46
2022/10/11 03:21:29;;;;;;;4.38;1.75;;;23.60;42.80;;;;;;4933484;29;20203;-38
2022/10/11 03:24:00;;;;;;;6.65;1.73;;;23.60;42.80;;;;;;4915742;29;20233;-38
2022/10/11 03:26:30;;;;;;;6.43;2.00;;;23.50;42.80;;;;;;4923743;29;20239;-38
2022/10/11 03:29:01;;;;;;;4.75;1.30;;;23.50;42.80;;;;;;4927421;29;20212;-38
2022/10/11 03:31:31;;;;;;;5.75;1.48;;;23.50;42.80;;;;;;4914782;29;20211;-38
2022/10/11 03:34:02;;;;;;;5.07;1.50;;;23.50;42.80;;;;;;4914479;29;20217;-40
2022/10/11 03:36:35;;;;;;;5.28;1.52;;;23.50;42.80;;;;;;4914954;29;20211;-39
2022/10/11 03:39:06;;;;;;;4.93;1.83;;;23.60;42.90;;;;;;4914027;29;20205;-38
2022/10/11 03:41:36;;;;;;;5.38;1.83;;;23.60;42.90;;;;;;4914660;29;20215;-38
2022/10/11 03:44:07;;;;;;;4.32;1.80;;;23.60;42.90;;;;;;4914862;29;20216;-37
2022/10/11 03:46:38;;;;;;;7.07;2.03;;;23.60;42.90;;;;;;4914788;29;20228;-37
2022/10/11 03:49:09;;;;;;;5.65;1.70;;;23.50;42.90;;;;;;4914480;29;20200;-40
2022/10/11 03:51:41;;;;;;;7.00;1.80;;;23.50;42.80;;;;;;4914246;29;20660;-37
2022/10/11 03:54:12;;;;;;;5.35;1.67;;;23.50;42.90;;;;;;4917135;29;20223;-43
2022/10/11 03:56:43;;;;;;;4.45;1.75;;;23.50;42.90;;;;;;4925040;29;20911;-43
2022/10/11 03:59:13;;;;;;;5.65;1.90;;;23.50;42.80;;;;;;4932753;29;20198;-43
2022/10/11 04:01:44;;;;;;;5.68;1.50;;;23.50;42.90;;;;;;4933738;29;20203;-41
2022/10/11 04:04:15;;;;;;;5.18;1.70;;;23.50;42.90;;;;;;4933394;29;20223;-37
2022/10/11 04:06:48;;;;;;;7.60;1.88;;;23.50;42.90;;;;;;4932906;29;20234;-38
2022/10/11 04:09:18;;;;;;;5.72;1.90;;;23.50;43.00;;;;;;4918432;29;20754;-38
2022/10/11 04:11:49;;;;;;;5.07;1.65;;;23.40;42.90;;;;;;4913991;29;20304;-38
2022/10/11 04:14:20;;;;;;;4.30;1.75;;;23.40;42.90;;;;;;4919831;29;20228;-41
2022/10/11 04:16:51;;;;;;;6.45;1.85;;;23.40;43.00;;;;;;4920937;29;20215;-38
2022/10/11 04:19:21;;;;;;;6.78;1.88;;;23.40;42.90;;;;;;4920837;29;20785;-38
2022/10/11 04:21:54;;;;;;;6.18;1.73;;;23.30;42.90;;;;;;4921538;29;20223;-44
2022/10/11 04:24:25;;;;;;;6.05;1.60;;;23.30;43.00;;;;;;4939366;29;20274;-40
2022/10/11 04:26:55;;;;;;;5.22;1.90;;;23.30;43.00;;;;;;4939972;29;20584;-44
2022/10/11 04:29:26;;;;;;;6.95;1.90;;;23.30;43.00;;;;;;4940074;29;20195;-43
2022/10/11 04:31:57;;;;;;;5.90;2.00;;;23.20;43.00;;;;;;4940193;29;20199;-37
2022/10/11 04:34:28;;;;;;;6.95;1.88;;;23.20;43.10;;;;;;4939180;29;20219;-37
2022/10/11 04:37:00;;;;;;;5.72;1.60;;;23.20;43.20;;;;;;4940011;29;20228;-43
2022/10/11 04:39:31;;;;;;;3.53;1.45;;;23.10;43.20;;;;;;4939077;29;20206;-43
2022/10/11 04:42:02;;;;;;;8.15;1.90;;;23.10;43.30;;;;;;4939163;29;20210;-44
2022/10/11 04:44:33;;;;;;;4.32;1.67;;;23.10;43.30;;;;;;4939963;29;20215;-40
2022/10/11 04:47:04;;;;;;;4.63;1.55;;;23.10;43.30;;;;;;4939333;29;20231;-46
2022/10/11 04:49:34;;;;;;;4.88;1.60;;;23.10;43.30;;;;;;4939118;29;20199;-38
2022/10/11 04:52:07;;;;;;;5.10;1.90;;;23.00;43.30;;;;;;4936342;29;20223;-37
2022/10/11 04:54:38;;;;;;;4.07;1.65;;;23.00;43.40;;;;;;4939261;29;20231;-41
2022/10/11 04:57:09;;;;;;;5.50;1.55;;;23.00;43.40;;;;;;4938957;29;20579;-43
2022/10/11 04:59:39;;;;;;;6.47;1.70;;;23.00;43.50;;;;;;4938805;29;20203;-42
2022/10/11 05:02:10;;;;;;;3.17;1.52;;;23.00;43.50;;;;;;4938950;29;20199;-40
2022/10/11 05:04:41;;;;;;;6.05;1.77;;;22.90;43.50;;;;;;4939271;29;20688;-40
2022/10/11 05:07:14;;;;;;;2.72;1.40;;;22.80;43.50;;;;;;4938912;29;20318;-38
2022/10/11 05:09:48;;;;;;;5.82;1.75;;;22.80;43.60;;;;;;4938686;29;20652;-39
2022/10/11 05:12:19;;;;;;;4.00;1.40;;;22.80;43.60;;;;;;4938857;29;20834;-38
2022/10/11 05:14:49;;;;;;;3.55;1.27;;;22.80;43.60;;;;;;4939065;29;20230;-38
2022/10/11 05:17:20;;;;;;;6.70;1.88;;;22.70;43.70;;;;;;4938669;29;20203;-42
2022/10/11 05:19:51;;;;;;;3.88;1.30;;;22.70;43.70;;;;;;4938604;29;20203;-39
2022/10/11 05:22:24;;;;;;;5.10;1.83;;;22.70;43.70;;;;;;4938856;29;20187;-43
2022/10/11 05:24:55;;;;;;;5.05;1.50;;;22.70;43.80;;;;;;4936397;29;20770;-38
2022/10/11 05:27:25;;;;;;;2.83;1.40;;;22.60;43.70;;;;;;4936717;29;20231;-41
2022/10/11 05:29:56;;;;;;;3.78;1.52;;;22.60;43.80;;;;;;4936285;29;20207;-39
2022/10/11 05:32:27;;;;;;;3.92;1.40;;;22.60;43.90;;;;;;4936472;29;20246;-39
2022/10/11 05:34:58;;;;;;;4.55;1.67;;;22.50;43.80;;;;;;4935881;29;20228;-45
2022/10/11 05:37:30;;;;;;;3.25;1.40;;;22.50;43.90;;;;;;4935472;29;20211;-44
2022/10/11 05:40:01;;;;;;;5.65;1.73;;;22.50;44.00;;;;;;4936232;29;20208;-40
2022/10/11 05:42:32;;;;;;;5.88;1.90;;;22.50;44.10;;;;;;4935272;29;20611;-42
2022/10/11 05:45:03;;;;;;;4.00;2.03;;;22.50;44.20;;;;;;4935710;29;20228;-41
2022/10/11 05:47:34;;;;;;;4.13;1.90;;;22.40;44.20;;;;;;4931557;29;20227;-40
2022/10/11 05:50:05;;;;;;;7.50;3.28;;;22.40;44.20;;;;;;4936033;29;20213;-38
2022/10/11 05:52:38;;;;;;;8.93;4.50;;;22.40;44.30;;;;;;4934889;29;20203;-40
2022/10/11 05:55:09;;;;;;;10.27;4.10;;;22.40;44.30;;;;;;4936165;29;20223;-41
2022/10/11 05:57:40;;;;;;;12.40;5.35;;;22.30;44.30;;;;;;4935367;29;20204;-40
2022/10/11 06:00:12;;;;;;;11.43;5.53;;;22.30;44.40;;;;;;4935885;29;20211;-37
2022/10/11 06:02:43;;;;;;;11.10;5.20;;;22.30;44.40;;;;;;4932383;29;20196;-42
2022/10/11 06:05:13;;;;;;;11.80;5.25;;;22.30;44.40;;;;;;4934753;29;20301;-37
2022/10/11 06:07:46;;;;;;;9.38;5.32;;;22.20;44.40;;;;;;4935362;29;20707;-41
2022/10/11 06:10:17;;;;;;;11.98;4.88;;;22.20;44.40;;;;;;4934499;29;20208;-38
2022/10/11 06:12:48;;;;;;;14.02;4.45;;;22.20;44.50;;;;;;4935106;29;20199;-41
2022/10/11 06:15:18;;;;;;;11.02;4.55;;;22.10;44.50;;;;;;4934477;29;20235;-42
2022/10/11 06:17:50;;;;;;;10.32;4.53;;;22.10;44.50;;;;;;4934975;29;20218;-39
2022/10/11 06:20:20;;;;;;;7.32;4.18;;;22.10;44.60;;;;;;4934666;29;20280;-37
2022/10/11 06:22:53;;;;;;;11.73;5.03;;;22.10;44.60;;;;;;4934865;29;20214;-39
2022/10/11 06:25:24;;;;;;;9.90;4.45;;;22.00;44.60;;;;;;4935152;29;20684;-42
2022/10/11 06:27:54;;;;;;;9.70;4.22;;;22.00;44.60;;;;;;4934658;29;20241;-40
2022/10/11 06:30:25;;;;;;;7.38;3.70;;;22.00;44.70;;;;;;4935344;29;20199;-39
2022/10/11 06:32:56;;;;;;;7.35;4.28;;;22.00;44.70;;;;;;4933863;29;20199;-46
2022/10/11 06:35:27;;;;;;;10.20;4.25;;;22.00;44.70;;;;;;4934916;29;20215;-41
2022/10/11 06:37:59;;;;;;;7.88;3.80;;;21.90;44.70;;;;;;4934731;29;20206;-37
2022/10/11 06:40:30;;;;;;;7.88;4.00;;;21.90;44.70;;;;;;4934196;29;20215;-38
2022/10/11 06:43:01;;;;;;;8.23;3.88;;;21.90;44.80;;;;;;4933829;29;20247;-37
2022/10/11 06:45:31;;;;;;;9.32;3.72;;;21.80;44.70;;;;;;4933863;29;20224;-42
2022/10/11 06:48:04;;;;;;;9.65;3.92;;;21.80;44.80;;;;;;4934602;29;20228;-37
2022/10/11 06:50:35;;;;;;;8.30;3.45;;;21.80;44.90;;;;;;4953301;28;20209;-41
2022/10/11 06:53:09;;;;;;;8.40;3.70;;;21.80;44.90;;;;;;4952653;28;20205;-38
2022/10/11 06:55:40;;;;;;;9.52;3.60;;;21.70;44.90;;;;;;4950625;28;20273;-38
2022/10/11 06:58:10;;;;;;;6.20;3.28;;;21.70;45.00;;;;;;4933744;29;20282;-41
2022/10/11 07:00:41;;;;;;;8.68;3.92;;;21.70;45.00;;;;;;4932935;29;20207;-39
2022/10/11 07:03:12;;;;;;;6.65;3.20;;;21.70;45.10;;;;;;4934724;28;20207;-38
2022/10/11 07:05:42;;;;;;;8.27;3.60;;;21.70;45.10;;;;;;4933395;29;20203;-44
2022/10/11 07:08:15;;;;;;;7.78;3.35;;;21.70;45.10;;;;;;4933235;29;20696;-41
2022/10/11 07:10:46;;;;;;;6.20;3.20;;;21.70;45.10;;;;;;4933189;29;20210;-39
2022/10/11 07:13:16;;;;;;;7.05;3.33;;;21.60;45.60;;;;;;4933222;29;20212;-40
2022/10/11 07:15:47;;;;;;;6.80;3.25;;;21.60;45.00;;;;;;4933093;29;20206;-40
2022/10/11 07:18:18;;;;;;;9.18;3.47;;;21.60;45.10;;;;;;4934450;29;20682;-37
2022/10/11 07:20:48;;;;;;;8.30;3.17;;;21.50;45.10;;;;;;4952363;28;20210;-37
2022/10/11 07:23:21;;;;;;;8.05;3.30;;;21.50;45.10;;;;;;4952247;28;20199;-41
2022/10/11 07:25:53;;;;;;;5.80;3.08;;;21.50;45.20;;;;;;4948600;28;20641;-38
2022/10/11 07:28:25;;;;;;;8.05;2.97;;;21.40;45.20;;;;;;4933043;29;20231;-37
2022/10/11 07:30:55;;;;;;;7.45;3.28;;;21.40;45.20;;;;;;4932616;29;20207;-37
2022/10/11 07:33:26;;;;;;;6.07;2.75;;;21.40;45.30;;;;;;4934547;29;20200;-38
2022/10/11 07:36:00;;;;;;;5.53;2.92;;;21.40;45.30;;;;;;4951669;28;20206;-37
2022/10/11 07:38:33;;;;;;;7.60;3.03;;;21.40;45.30;;;;;;4951978;28;20269;-39
2022/10/11 07:41:07;;;;;;;6.88;2.97;;;21.30;45.30;;;;;;4952361;28;20559;-43
2022/10/11 07:43:39;;;;;;;6.75;3.03;;;21.30;45.20;;;;;;4951610;28;20222;-38
2022/10/11 07:46:10;;;;;;;4.88;2.97;;;21.30;45.30;;;;;;4951384;28;20569;-43
2022/10/11 07:48:41;;;;;;;5.97;3.03;;;21.20;45.20;;;;;;4950721;28;20313;-42
2022/10/11 07:51:13;;;;;;;8.45;3.33;;;21.20;45.30;;;;;;4951870;28;20202;-41
2022/10/11 07:53:47;;;;;;;5.43;3.20;;;21.20;45.30;;;;;;4922437;28;20216;-39
2022/10/11 07:56:20;;;;;;;5.72;2.53;;;21.20;45.30;;;;;;4921127;29;20207;-45
2022/10/11 07:58:53;;;;;;;5.57;2.80;;;21.10;45.30;;;;;;4932931;29;20207;-43
2022/10/11 08:01:24;;;;;;;6.78;2.70;;;21.10;45.50;;;;;;4927871;29;20208;-49
2022/10/11 08:03:55;;;;;;;4.50;2.70;;;21.10;45.50;;;;;;4932960;29;20219;-48
2022/10/11 08:06:29;;;;;;;5.10;2.88;;;21.10;45.50;;;;;;4925837;29;20236;-42
2022/10/11 08:09:02;;;;;;;5.45;2.83;;;21.00;45.50;;;;;;4929567;29;20596;-43
2022/10/11 08:11:34;;;;;;;6.70;2.85;;;21.00;45.50;;;;;;4932631;29;20255;-38
2022/10/11 08:14:07;;;;;;;7.68;3.88;;;21.00;45.50;;;;;;4932778;29;20637;-44
2022/10/11 08:16:38;;;;;;;11.02;4.93;;;21.00;45.50;;;;;;4933291;29;20226;-41
2022/10/11 08:19:09;;;;;;;9.20;4.47;;;21.00;45.70;;;;;;4933880;29;20206;-44
2022/10/11 08:21:40;;;;;;;7.22;4.03;;;21.00;45.60;;;;;;4933388;29;20564;-40
2022/10/11 08:24:15;;;;;;;7.75;3.92;;;20.90;45.60;;;;;;4933845;29;20714;-39
2022/10/11 08:26:46;;;;;;;7.53;4.30;;;20.90;45.70;;;;;;4933447;29;20206;-42
2022/10/11 08:29:16;;;;;;;11.63;5.20;;;20.90;45.80;;;;;;4933724;29;20266;-41
2022/10/11 08:31:47;;;;;;;7.63;4.35;;;20.80;45.80;;;;;;4932382;29;20225;-41
2022/10/11 08:34:18;;;;;;;8.02;4.90;;;20.80;45.80;;;;;;4933128;29;20220;-47
2022/10/11 08:36:49;;;;;;;9.18;4.70;;;20.80;45.90;;;;;;4933445;29;20659;-44
2022/10/11 08:39:22;;;;;;;8.63;4.80;;;20.80;45.90;;;;;;4932865;29;20664;-42
2022/10/11 08:41:56;;;;;;;7.60;4.25;;;20.80;45.90;;;;;;4933544;29;20210;-39
2022/10/11 08:44:41;;;;;;;9.93;4.85;;;20.80;45.80;;;;;;4931928;29;20219;-37
2022/10/11 08:47:17;;;;;;;9.68;5.03;;;20.80;45.80;;;;;;4933254;29;20685;-37
2022/10/11 08:49:48;;;;;;;8.00;4.25;;;20.80;45.90;;;;;;4932089;29;20203;-37
2022/10/11 08:52:23;;;;;;;7.88;4.32;;;20.70;45.90;;;;;;4932984;29;20226;-37
2022/10/11 08:54:59;;;;;;;8.88;4.65;;;20.70;45.90;;;;;;4927345;29;20218;-38
2022/10/11 08:57:34;;;;;;;7.15;4.18;;;20.70;45.90;;;;;;4931020;29;20207;-44
2022/10/11 09:00:08;;;;;;;8.90;4.43;;;20.60;46.00;;;;;;4935492;29;20210;-39
2022/10/11 09:02:45;;;;;;;6.80;4.18;;;20.60;46.10;;;;;;4936857;29;20215;-37
2022/10/11 09:05:18;;;;;;;7.82;3.90;;;20.60;46.00;;;;;;4937017;29;20231;-41
2022/10/11 09:07:57;;;;;;;7.75;4.15;;;20.60;46.10;;;;;;4936192;29;20223;-41
2022/10/11 09:10:56;;;;;;;6.15;4.03;;;20.60;46.10;;;;;;4935901;29;20206;-43
2022/10/11 09:13:55;;;;;;;9.05;4.10;;;20.50;46.10;;;;;;4932659;29;20199;-49
2022/10/11 09:16:37;;;;;;;7.70;3.60;;;20.60;46.00;;;;;;4933688;29;20208;-41
2022/10/11 09:19:34;;;;;;;8.43;4.00;;;20.50;46.00;;;;;;4933944;29;20206;-47
2022/10/11 09:22:11;;;;;;;8.05;3.45;;;20.50;46.00;;;;;;4935892;29;20569;-38
2022/10/11 09:24:58;;;;;;;7.15;3.55;;;20.50;46.00;;;;;;4936249;29;20298;-47
2022/10/11 09:27:37;;;;;;;7.20;3.75;;;20.50;46.10;;;;;;4936373;29;20219;-40
2022/10/11 09:30:11;;;;;;;7.25;3.30;;;20.40;46.00;;;;;;4936632;29;20209;-40
2022/10/11 09:32:45;;;;;;;9.35;3.60;;;20.40;46.00;;;;;;4936113;29;20207;-45
2022/10/11 09:35:17;;;;;;;7.40;3.35;;;20.40;46.10;;;;;;4935071;29;20223;-43
2022/10/11 09:37:59;;;;;;;8.27;3.60;;;20.40;46.10;;;;;;4917541;29;20208;-40
2022/10/11 09:40:44;;;;;;;8.98;3.70;;;20.40;46.10;;;;;;4916411;29;20587;-40
2022/10/11 09:43:17;;;;;;;7.88;3.88;;;20.40;46.10;;;;;;4916698;29;20645;-45
2022/10/11 09:45:48;;;;;;;5.85;3.17;;;20.30;46.10;;;;;;4916902;29;20204;-42
2022/10/11 09:48:21;;;;;;;6.22;3.20;;;20.30;46.10;;;;;;4916502;29;20223;-43
2022/10/11 09:51:04;;;;;;;7.25;3.70;;;20.30;46.00;;;;;;4917543;29;20214;-39
2022/10/11 09:53:55;;;;;;;6.82;3.63;;;20.30;46.10;;;;;;4935245;29;20225;-44
2022/10/11 09:56:28;;;;;;;5.03;3.10;;;20.30;46.10;;;;;;4935696;29;20667;-43
2022/10/11 09:59:26;;;;;;;7.15;3.17;;;20.20;46.10;;;;;;4925576;29;20195;-42
2022/10/11 10:02:25;;;;;;;6.15;3.03;;;20.20;46.10;;;;;;4931902;29;20195;-43
2022/10/11 10:05:05;;;;;;;5.95;2.95;;;20.20;46.10;;;;;;4913335;29;20220;-42
2022/10/11 10:07:36;;;;;;;6.47;3.35;;;20.20;46.10;;;;;;4934646;29;20206;-42
2022/10/11 10:10:29;;;;;;;7.07;3.40;;;20.20;46.10;;;;;;4924801;29;20211;-42
2022/10/11 10:13:03;;;;;;;5.47;2.90;;;20.10;46.10;;;;;;4916009;29;20231;-40
2022/10/11 10:15:38;;;;;;;5.13;3.03;;;20.10;46.10;;;;;;4916240;29;20227;-43
2022/10/11 10:18:18;;;;;;;5.97;2.88;;;20.10;46.10;;;;;;4916283;29;20821;-37
2022/10/11 10:20:54;;;;;;;5.07;2.88;;;20.10;46.10;;;;;;4915860;29;20206;-45
2022/10/11 10:23:28;;;;;;;5.55;2.70;;;20.10;46.20;;;;;;4916058;29;20734;-44
2022/10/11 10:26:15;;;;;;;4.80;2.65;;;20.00;46.10;;;;;;4920766;29;20294;-37
2022/10/11 10:29:01;;;;;;;4.63;2.70;;;20.10;46.10;;;;;;4934303;29;20602;-38
2022/10/11 10:31:40;;;;;;;5.85;2.95;;;20.00;46.10;;;;;;4934799;29;20641;-41
2022/10/11 10:34:18;;;;;;;5.25;2.65;;;20.00;46.10;;;;;;4926427;29;20228;-46
2022/10/11 10:36:55;;;;;;;5.20;2.58;;;20.00;46.20;;;;;;4916131;29;20211;-39
2022/10/11 10:39:30;;;;;;;6.22;2.50;;;20.00;46.20;;;;;;4916028;29;20566;-40
2022/10/11 10:42:05;;;;;;;5.45;3.00;;;19.90;46.10;;;;;;4916298;29;20645;-39
2022/10/11 10:44:36;;;;;;;6.03;3.03;;;19.90;46.10;;;;;;4915454;29;20281;-40
2022/10/11 10:47:15;;;;;;;4.78;2.45;;;19.90;46.10;;;;;;4928568;29;20188;-39
2022/10/11 10:49:51;;;;;;;8.27;3.60;;;19.90;46.20;;;;;;4933308;29;20793;-41
2022/10/11 10:52:44;;;;;;;6.18;2.70;;;19.90;46.20;;;;;;4933493;29;20199;-37
2022/10/11 10:55:26;;;;;;;6.30;2.65;;;19.90;46.20;;;;;;4945429;29;20223;-37
2022/10/11 10:58:11;;;;;;;5.40;2.72;;;19.80;46.10;;;;;;4914935;29;20551;-39
2022/10/11 11:00:46;;;;;;;5.97;2.88;;;19.80;46.10;;;;;;4915083;29;20208;-43
2022/10/11 11:03:25;;;;;;;7.35;3.00;;;19.80;46.20;;;;;;4914809;29;20211;-47
2022/10/11 11:06:03;;;;;;;6.20;2.63;;;19.80;46.20;;;;;;4914729;29;20652;-40
2022/10/11 11:08:47;;;;;;;5.28;2.33;;;19.80;46.80;;;;;;4914310;29;20228;-42
2022/10/11 11:11:33;;;;;;;4.13;2.28;;;19.80;46.30;;;;;;4915037;29;20291;-41
2022/10/11 11:14:14;;;;;;;5.10;2.90;;;19.80;46.30;;;;;;4914644;29;20220;-43
2022/10/11 11:16:51;;;;;;;6.28;2.70;;;19.70;46.30;;;;;;4923744;29;20195;-39
2022/10/11 11:19:34;;;;;;;4.43;2.30;;;19.70;46.20;;;;;;4933373;29;20226;-39
2022/10/11 11:22:15;;;;;;;4.93;2.63;;;19.60;46.20;;;;;;4933144;29;20199;-37
2022/10/11 11:24:54;;;;;;;5.82;2.58;;;19.70;46.30;;;;;;4939957;29;20716;-38
2022/10/11 11:27:39;;;;;;;4.15;2.10;;;19.70;46.20;;;;;;4936354;28;20203;-41
2022/10/11 11:30:14;;;;;;;4.90;2.33;;;19.60;46.20;;;;;;4933219;29;20231;-41
2022/10/11 11:32:54;;;;;;;4.32;2.05;;;19.60;46.20;;;;;;4933121;29;20210;-43
2022/10/11 11:35:33;;;;;;;3.63;2.15;;;19.60;46.20;;;;;;4932934;29;20311;-41
2022/10/11 11:38:13;;;;;;;5.70;2.55;;;19.60;46.30;;;;;;4932940;29;20254;-39
2022/10/11 11:40:48;;;;;;;5.25;2.42;;;19.60;46.30;;;;;;4946409;29;20209;-39
2022/10/11 11:43:23;;;;;;;5.10;2.75;;;19.60;46.30;;;;;;4952001;28;20198;-38
2022/10/11 11:45:58;;;;;;;4.63;2.22;;;19.50;46.30;;;;;;4947798;28;20192;-38
2022/10/11 11:48:29;;;;;;;4.60;2.50;;;19.50;46.30;;;;;;4933104;29;20203;-39
2022/10/11 11:51:06;;;;;;;3.97;2.25;;;19.50;46.30;;;;;;4932890;29;20401;-40
2022/10/11 11:53:51;;;;;;;5.78;1.98;;;19.50;46.30;;;;;;4932770;29;20230;-39
2022/10/11 11:56:31;;;;;;;6.38;2.33;;;19.50;46.40;;;;;;4942323;29;20200;-40
2022/10/11 11:59:08;;;;;;;4.45;1.85;;;19.50;46.40;;;;;;4913788;29;20732;-37
2022/10/11 12:01:44;;;;;;;3.97;2.22;;;19.40;46.30;;;;;;4913272;29;20211;-37
2022/10/11 12:04:29;;;;;;;5.68;2.35;;;19.40;46.30;;;;;;4912936;29;20222;-38
2022/10/11 12:07:10;;;;;;;3.55;2.15;;;19.40;46.30;;;;;;4915536;29;20216;-41
2022/10/11 12:09:42;;;;;;;4.47;2.25;;;19.40;46.30;;;;;;4921495;29;20249;-38
2022/10/11 12:12:30;;;;;;;3.97;2.33;;;19.40;46.30;;;;;;4951741;28;20677;-38
2022/10/11 12:15:21;;;;;;;3.88;2.08;;;19.40;46.40;;;;;;4951976;28;20223;-45
2022/10/11 12:18:15;;;;;;;3.67;2.30;;;19.40;46.40;;;;;;4951799;28;20577;-37
2022/10/11 12:20:46;;;;;;;4.15;2.25;;;19.30;46.30;;;;;;4951082;28;20335;-42
2022/10/11 12:23:44;;;;;;;5.72;2.35;;;19.30;46.30;;;;;;4951021;28;20205;-37
2022/10/11 12:26:38;;;;;;;4.45;2.17;;;19.30;46.40;;;;;;4944556;28;20195;-42
2022/10/11 12:29:26;;;;;;;4.50;2.17;;;19.30;46.40;;;;;;4932285;29;20295;-38
2022/10/11 12:32:28;;;;;;;3.58;1.85;;;19.30;46.40;;;;;;4931685;29;20205;-37
2022/10/11 12:35:30;;;;;;;4.95;2.00;;;19.30;46.40;;;;;;4925024;29;20218;-37
2022/10/11 12:38:15;;;;;;;6.65;1.90;;;19.30;46.40;;;;;;4936417;29;20754;-37
2022/10/11 12:40:49;;;;;;;4.82;2.20;;;19.20;46.40;;;;;;4947292;29;20671;-42
2022/10/11 12:44:04;;;;;;;5.25;2.13;;;19.20;46.40;;;;;;4955358;28;20632;-41
2022/10/11 12:47:11;;;;;;;3.85;1.90;;;19.20;46.40;;;;;;4944932;28;20678;-40
2022/10/11 12:50:03;;;;;;;3.63;1.90;;;19.20;46.40;;;;;;4935866;29;20238;-42
2022/10/11 12:52:41;;;;;;;4.00;2.00;;;19.20;46.40;;;;;;4935971;29;20209;-39
2022/10/11 12:55:46;;;;;;;4.30;1.80;;;19.10;46.40;;;;;;4941403;29;20242;-37
2022/10/11 12:58:41;;;;;;;3.10;1.77;;;19.10;46.50;;;;;;4935807;29;20451;-44
2022/10/11 13:01:21;;;;;;;3.55;1.90;;;19.10;46.40;;;;;;4935665;29;20274;-39
2022/10/11 13:04:04;;;;;;;3.45;1.98;;;19.10;46.40;;;;;;4935387;29;20270;-39
2022/10/11 13:06:37;;;;;;;2.65;1.70;;;19.10;46.40;;;;;;4934490;29;20210;-45
2022/10/11 13:09:16;;;;;;;3.10;1.70;;;19.10;46.50;;;;;;4935320;29;20235;-37
2022/10/11 13:11:52;;;;;;;5.30;2.45;;;19.10;46.50;;;;;;4953268;29;20199;-40
2022/10/11 13:14:25;;;;;;;4.82;2.00;;;19.10;46.50;;;;;;4954594;28;20690;-37
2022/10/11 13:17:17;;;;;;;4.10;1.95;;;19.00;46.50;;;;;;4954705;28;20203;-45
2022/10/11 13:19:47;;;;;;;3.10;1.83;;;19.00;46.50;;;;;;4954929;28;20250;-38
2022/10/11 13:22:24;;;;;;;4.20;1.85;;;19.00;46.50;;;;;;4955023;28;20242;-41
2022/10/11 13:24:58;;;;;;;3.22;1.92;;;19.00;46.50;;;;;;4954316;28;20229;-40
2022/10/11 13:27:30;;;;;;;3.45;1.83;;;19.00;46.50;;;;;;4938072;28;20612;-40
2022/10/11 13:30:07;;;;;;;3.60;1.77;;;19.00;46.50;;;;;;4935131;29;20235;-42